createdAt,value
2023-01-21T00:01:29.744Z,9.80
2023-01-21T00:04:00.326Z,9.76
2023-01-21T00:06:32.634Z,9.76
2023-01-21T00:09:03.217Z,10.09
2023-01-21T00:11:34.632Z,9.28
2023-01-21T00:14:05.327Z,9.58
2023-01-21T00:16:37.056Z,9.78
2023-01-21T00:19:07.642Z,9.93
2023-01-21T00:21:38.174Z,9.72
2023-01-21T00:24:08.945Z,10.42
2023-01-21T00:26:39.766Z,9.94
2023-01-21T00:29:12.519Z,9.18
2023-01-21T00:31:43.286Z,9.64
2023-01-21T00:34:13.941Z,10.00
2023-01-21T00:36:44.819Z,9.58
2023-01-21T00:39:15.821Z,9.64
2023-01-21T00:41:46.425Z,9.60
2023-01-21T00:44:17.959Z,9.83
2023-01-21T00:46:48.569Z,9.96
2023-01-21T00:49:19.156Z,9.55
2023-01-21T00:51:49.810Z,9.69
2023-01-21T00:54:21.700Z,10.26
2023-01-21T00:56:52.251Z,9.81
2023-01-21T00:59:22.975Z,10.10
2023-01-21T01:01:53.610Z,9.89
2023-01-21T01:04:25.289Z,9.87
2023-01-21T01:06:55.948Z,9.68
2023-01-21T01:09:27.578Z,9.87
2023-01-21T01:11:58.145Z,9.88
2023-01-21T01:14:28.784Z,9.76
2023-01-21T01:16:59.406Z,9.52
2023-01-21T01:19:30.213Z,9.77
2023-01-21T01:22:00.777Z,9.69
2023-01-21T01:24:31.865Z,9.45
2023-01-21T01:27:02.451Z,9.29
2023-01-21T01:29:34.140Z,9.57
2023-01-21T01:32:04.840Z,9.61
2023-01-21T01:34:35.407Z,9.52
2023-01-21T01:37:06.049Z,10.09
2023-01-21T01:39:36.617Z,9.16
2023-01-21T01:42:07.156Z,9.71
2023-01-21T01:45:01.271Z,9.32
2023-01-21T01:47:34.706Z,8.89
2023-01-21T01:50:08.428Z,9.09
2023-01-21T01:52:40.032Z,9.51
2023-01-21T01:55:12.666Z,9.61
2023-01-21T01:57:46.219Z,9.57
2023-01-21T02:00:17.992Z,9.55
2023-01-21T02:02:50.732Z,9.51
2023-01-21T02:05:21.851Z,9.43
2023-01-21T02:07:52.541Z,10.11
2023-01-21T02:10:23.208Z,9.79
2023-01-21T02:12:57.083Z,10.26
2023-01-21T02:15:30.748Z,10.17
2023-01-21T02:18:04.185Z,10.12
2023-01-21T02:21:06.536Z,10.00
2023-01-21T02:23:57.702Z,10.31
2023-01-21T02:26:47.395Z,10.40
2023-01-21T02:29:29.695Z,10.63
2023-01-21T02:32:17.849Z,10.21
2023-01-21T02:35:13.503Z,10.71
2023-01-21T02:38:09.522Z,10.10
2023-01-21T02:41:00.383Z,10.02
2023-01-21T02:43:53.317Z,10.07
2023-01-21T02:46:29.541Z,9.83
2023-01-21T02:49:06.046Z,10.92
2023-01-21T02:51:36.925Z,10.01
2023-01-21T02:54:16.588Z,10.39
2023-01-21T02:56:47.408Z,9.97
2023-01-21T02:59:18.176Z,10.21
2023-01-21T03:01:57.578Z,10.47
2023-01-21T03:04:55.764Z,10.19
2023-01-21T03:07:31.872Z,10.33
2023-01-21T03:10:20.200Z,10.30
2023-01-21T03:13:19.973Z,10.03
2023-01-21T03:16:11.015Z,10.27
2023-01-21T03:18:47.592Z,10.33
2023-01-21T03:21:23.963Z,10.28
2023-01-21T03:23:56.674Z,9.77
2023-01-21T03:26:36.128Z,10.41
2023-01-21T03:29:09.650Z,10.55
2023-01-21T03:31:43.341Z,10.39
2023-01-21T03:34:17.282Z,10.73
2023-01-21T03:36:59.951Z,9.77
2023-01-21T03:39:34.631Z,10.07
2023-01-21T03:42:05.688Z,10.72
2023-01-21T03:44:36.691Z,10.11
2023-01-21T03:47:25.521Z,9.98
2023-01-21T03:49:59.011Z,10.52
2023-01-21T03:52:30.191Z,10.67
2023-01-21T03:55:00.855Z,10.04
2023-01-21T03:57:32.581Z,9.88
2023-01-21T04:00:03.455Z,10.55
2023-01-21T04:02:34.342Z,9.88
2023-01-21T04:05:05.577Z,10.03
2023-01-21T04:07:36.097Z,10.29
2023-01-21T04:10:07.217Z,10.64
2023-01-21T04:12:38.768Z,10.73
2023-01-21T04:15:10.324Z,10.71
2023-01-21T04:17:40.793Z,10.06
2023-01-21T04:20:11.980Z,9.99
2023-01-21T04:22:42.420Z,10.09
2023-01-21T04:25:12.860Z,10.44
2023-01-21T04:27:44.927Z,10.13
2023-01-21T04:30:16.292Z,10.36
2023-01-21T04:32:46.898Z,10.53
2023-01-21T04:35:18.497Z,10.76
2023-01-21T04:37:50.055Z,10.39
2023-01-21T04:40:20.803Z,11.19
2023-01-21T04:42:51.594Z,10.89
2023-01-21T04:45:23.402Z,10.85
2023-01-21T04:47:53.877Z,10.61
2023-01-21T04:50:24.361Z,11.03
2023-01-21T04:52:54.891Z,11.25
2023-01-21T04:55:26.493Z,10.67
2023-01-21T04:57:57.247Z,10.64
2023-01-21T05:00:28.692Z,11.17
2023-01-21T05:02:59.146Z,10.63
2023-01-21T05:05:29.626Z,10.79
2023-01-21T05:08:00.526Z,10.70
2023-01-21T05:10:31.093Z,10.55
2023-01-21T05:13:01.548Z,10.81
2023-01-21T05:15:32.483Z,11.15
2023-01-21T05:18:03.105Z,10.95
2023-01-21T05:20:33.547Z,10.66
2023-01-21T05:23:04.573Z,10.48
2023-01-21T05:25:37.695Z,10.86
2023-01-21T05:28:08.123Z,11.29
2023-01-21T05:30:40.694Z,11.21
2023-01-21T05:33:10.976Z,11.32
2023-01-21T05:35:43.163Z,10.64
2023-01-21T05:38:14.766Z,10.88
2023-01-21T05:40:45.217Z,11.39
2023-01-21T05:43:15.749Z,11.45
2023-01-21T05:45:46.264Z,11.12
2023-01-21T05:48:17.273Z,11.66
2023-01-21T05:50:50.390Z,10.29
2023-01-21T05:53:20.862Z,11.11
2023-01-21T05:55:58.067Z,10.70
2023-01-21T05:58:28.812Z,11.24
2023-01-21T06:00:59.670Z,11.52
2023-01-21T06:03:30.376Z,11.13
2023-01-21T06:06:00.833Z,10.74
2023-01-21T06:08:31.394Z,10.85
2023-01-21T06:11:02.020Z,10.86
2023-01-21T06:13:35.471Z,10.71
2023-01-21T06:16:06.336Z,10.92
2023-01-21T06:18:36.851Z,10.20
2023-01-21T06:21:07.629Z,10.54
2023-01-21T06:23:38.689Z,10.80
2023-01-21T06:26:09.345Z,10.83
2023-01-21T06:28:39.793Z,10.38
2023-01-21T06:31:10.419Z,10.34
2023-01-21T06:33:40.993Z,10.45
2023-01-21T06:36:11.559Z,10.77
2023-01-21T06:38:42.125Z,10.11
2023-01-21T06:41:12.540Z,10.23
2023-01-21T06:43:42.969Z,9.81
2023-01-21T06:46:14.010Z,9.63
2023-01-21T06:48:44.576Z,10.78
2023-01-21T06:51:15.251Z,11.17
2023-01-21T06:53:45.918Z,10.27
2023-01-21T06:56:16.323Z,17.51
2023-01-21T06:58:46.807Z,14.00
2023-01-21T07:01:17.396Z,13.20
2023-01-21T07:03:47.862Z,12.61
2023-01-21T07:06:19.733Z,12.55
2023-01-21T07:08:51.539Z,13.10
2023-01-21T07:11:21.960Z,14.85
2023-01-21T07:13:53.650Z,15.45
2023-01-21T07:16:24.260Z,15.25
2023-01-21T07:18:54.781Z,13.98
2023-01-21T07:21:26.935Z,14.00
2023-01-21T07:23:57.686Z,15.35
2023-01-21T07:26:28.211Z,14.76
2023-01-21T07:29:01.669Z,12.25
2023-01-21T07:31:31.138Z,11.75
2023-01-21T07:34:01.800Z,11.25
2023-01-21T07:36:32.349Z,12.12
2023-01-21T07:39:07.101Z,11.33
2023-01-21T07:41:37.582Z,10.81
2023-01-21T07:44:08.137Z,11.13
2023-01-21T07:46:38.680Z,11.26
2023-01-21T07:49:09.861Z,12.20
2023-01-21T07:51:40.467Z,11.18
2023-01-21T07:54:12.299Z,11.66
2023-01-21T07:56:42.729Z,10.43
2023-01-21T07:59:14.060Z,12.77
2023-01-21T08:01:44.581Z,11.46
2023-01-21T08:04:15.331Z,11.57
2023-01-21T08:06:45.781Z,12.12
2023-01-21T08:09:16.373Z,11.21
2023-01-21T08:11:46.857Z,11.32
2023-01-21T08:14:17.391Z,11.18
2023-01-21T08:16:47.837Z,11.34
2023-01-21T08:19:19.533Z,11.33
2023-01-21T08:21:52.727Z,11.31
2023-01-21T08:24:23.619Z,11.14
2023-01-21T08:26:54.236Z,11.50
2023-01-21T08:29:28.139Z,11.49
2023-01-21T08:32:02.184Z,11.17
2023-01-21T08:34:32.912Z,11.70
2023-01-21T08:37:03.332Z,11.57
2023-01-21T08:39:33.805Z,11.09
2023-01-21T08:42:04.340Z,11.02
2023-01-21T08:44:35.786Z,10.94
2023-01-21T08:47:06.241Z,11.27
2023-01-21T08:49:36.718Z,10.89
2023-01-21T08:52:07.492Z,12.04
2023-01-21T08:54:37.972Z,11.45
2023-01-21T08:57:08.419Z,12.12
2023-01-21T08:59:38.900Z,11.28
2023-01-21T09:02:10.850Z,12.37
2023-01-21T09:04:41.433Z,12.43
2023-01-21T09:07:13.361Z,11.02
2023-01-21T09:09:43.919Z,11.97
2023-01-21T09:12:14.373Z,12.05
2023-01-21T09:14:45.958Z,11.89
2023-01-21T09:17:16.375Z,12.13
2023-01-21T09:19:46.945Z,11.47
2023-01-21T09:22:18.182Z,12.40
2023-01-21T09:24:48.666Z,11.80
2023-01-21T09:27:19.140Z,11.85
2023-01-21T09:29:49.708Z,11.26
2023-01-21T09:32:20.122Z,11.97
2023-01-21T09:34:50.597Z,11.79
2023-01-21T09:37:21.075Z,12.53
2023-01-21T09:39:51.551Z,12.61
2023-01-21T09:42:25.202Z,12.16
2023-01-21T09:44:58.755Z,12.19
2023-01-21T09:47:41.462Z,11.66
2023-01-21T09:50:19.170Z,10.81
2023-01-21T09:52:52.286Z,11.13
2023-01-21T09:55:25.631Z,11.01
2023-01-21T09:58:10.883Z,11.36
2023-01-21T10:01:02.192Z,11.11
2023-01-21T10:03:44.244Z,11.24
2023-01-21T10:06:33.664Z,12.32
2023-01-21T10:09:07.009Z,10.97
2023-01-21T10:11:52.076Z,11.05
2023-01-21T10:14:40.383Z,14.47
2023-01-21T10:17:19.467Z,13.55
2023-01-21T10:19:55.281Z,10.92
2023-01-21T10:22:28.659Z,11.61
2023-01-21T10:25:24.728Z,10.56
2023-01-21T10:27:59.431Z,10.76
2023-01-21T10:30:35.484Z,11.02
2023-01-21T10:33:09.052Z,11.22
2023-01-21T10:35:48.218Z,10.76
2023-01-21T10:38:24.546Z,11.36
2023-01-21T10:41:00.848Z,12.42
2023-01-21T10:43:50.483Z,11.85
2023-01-21T10:46:29.660Z,11.24
2023-01-21T10:49:21.407Z,11.46
2023-01-21T10:51:54.967Z,11.75
2023-01-21T10:54:34.217Z,11.43
2023-01-21T10:57:34.725Z,11.48
2023-01-21T11:00:08.339Z,11.21
2023-01-21T11:02:38.913Z,12.04
2023-01-21T11:05:12.500Z,11.59
2023-01-21T11:07:43.866Z,11.97
2023-01-21T11:10:18.446Z,11.52
2023-01-21T11:12:49.964Z,11.55
2023-01-21T11:15:22.640Z,11.50
2023-01-21T11:17:56.264Z,12.25
2023-01-21T11:20:44.329Z,11.90
2023-01-21T11:23:32.278Z,12.16
2023-01-21T11:26:10.195Z,11.51
2023-01-21T11:28:39.788Z,11.81
2023-01-21T11:31:19.226Z,11.42
2023-01-21T11:33:50.106Z,11.14
2023-01-21T11:36:23.414Z,11.66
2023-01-21T11:39:14.558Z,11.97
2023-01-21T11:41:47.937Z,11.88
2023-01-21T11:44:20.580Z,11.80
2023-01-21T11:46:51.751Z,11.46
2023-01-21T11:49:34.060Z,11.62
2023-01-21T11:52:16.327Z,12.62
2023-01-21T11:54:47.387Z,12.60
2023-01-21T11:57:24.453Z,12.45
2023-01-21T11:59:57.864Z,11.97
2023-01-21T12:02:30.949Z,11.74
2023-01-21T12:05:09.009Z,12.49
2023-01-21T12:07:43.885Z,13.37
2023-01-21T12:10:19.828Z,13.06
2023-01-21T12:13:05.935Z,13.74
2023-01-21T12:15:46.765Z,12.67
2023-01-21T12:18:36.427Z,13.34
2023-01-21T12:21:37.075Z,13.27
2023-01-21T12:24:10.443Z,12.31
2023-01-21T12:26:45.698Z,13.08
2023-01-21T12:29:35.801Z,12.19
2023-01-21T12:32:27.294Z,13.71
2023-01-21T12:35:07.323Z,12.06
2023-01-21T12:37:49.552Z,12.54
2023-01-21T12:40:24.092Z,12.23
2023-01-21T12:42:57.480Z,12.49
2023-01-21T12:45:30.870Z,12.50
2023-01-21T12:48:04.270Z,12.87
2023-01-21T12:50:46.386Z,11.92
2023-01-21T12:53:22.318Z,12.96
2023-01-21T12:56:27.451Z,12.14
2023-01-21T12:59:03.461Z,12.70
2023-01-21T13:01:56.527Z,13.15
2023-01-21T13:04:48.381Z,12.87
2023-01-21T13:07:43.540Z,12.73
2023-01-21T13:10:32.049Z,12.95
2023-01-21T13:13:26.701Z,12.44
2023-01-21T13:16:00.283Z,12.84
2023-01-21T13:18:37.397Z,12.00
2023-01-21T13:21:19.620Z,12.96
2023-01-21T13:23:57.455Z,13.32
2023-01-21T13:26:51.857Z,12.75
2023-01-21T13:29:40.189Z,13.38
2023-01-21T13:32:25.227Z,13.20
2023-01-21T13:35:18.677Z,12.70
2023-01-21T13:38:01.396Z,12.78
2023-01-21T13:40:39.451Z,13.06
2023-01-21T13:43:32.541Z,13.57
2023-01-21T13:46:08.953Z,13.73
2023-01-21T13:48:43.938Z,13.30
2023-01-21T13:51:22.589Z,13.94
2023-01-21T13:54:16.393Z,12.66
2023-01-21T13:57:06.085Z,13.11
2023-01-21T13:59:54.311Z,14.31
2023-01-21T14:02:30.537Z,13.94
2023-01-21T14:05:12.343Z,13.66
2023-01-21T14:07:46.266Z,13.61
2023-01-21T14:10:20.832Z,13.51
2023-01-21T14:13:09.079Z,13.87
2023-01-21T14:15:57.182Z,14.02
2023-01-21T14:19:02.128Z,14.25
2023-01-21T14:21:53.656Z,13.25
2023-01-21T14:24:32.855Z,13.28
2023-01-21T14:27:06.228Z,13.48
2023-01-21T14:29:54.779Z,13.47
2023-01-21T14:32:55.360Z,13.46
2023-01-21T14:35:34.438Z,13.91
2023-01-21T14:38:22.947Z,13.84
2023-01-21T14:41:06.497Z,14.13
2023-01-21T14:43:40.715Z,14.08
2023-01-21T14:46:29.226Z,13.79
2023-01-21T14:49:09.276Z,13.69
2023-01-21T14:51:46.508Z,13.57
2023-01-21T14:54:28.275Z,12.84
2023-01-21T14:57:17.412Z,13.26
2023-01-21T14:59:44.806Z,13.24
2023-01-21T15:02:24.455Z,13.06
2023-01-21T15:05:13.306Z,13.89
2023-01-21T15:07:49.210Z,13.72
2023-01-21T15:10:24.525Z,12.93
2023-01-21T15:12:59.318Z,13.93
2023-01-21T15:15:40.057Z,13.91
2023-01-21T15:18:28.455Z,14.08
2023-01-21T15:21:00.707Z,14.08
2023-01-21T15:23:35.413Z,14.10
2023-01-21T15:26:13.154Z,14.46
2023-01-21T15:29:00.186Z,14.12
2023-01-21T15:38:13.630Z,12.67
2023-01-21T15:41:04.109Z,14.15
2023-01-21T15:43:49.418Z,13.95
2023-01-21T15:46:29.006Z,13.98
2023-01-21T15:49:02.508Z,13.43
2023-01-21T15:51:51.282Z,13.70
2023-01-21T15:54:35.665Z,13.76
2023-01-21T15:57:21.973Z,13.39
2023-01-21T16:00:16.496Z,13.88
2023-01-21T16:02:56.026Z,12.70
2023-01-21T16:05:44.591Z,13.64
2023-01-21T16:08:32.549Z,12.66
2023-01-21T16:11:28.922Z,13.60
2023-01-21T16:14:04.971Z,13.10
2023-01-21T16:16:54.454Z,13.92
2023-01-21T16:19:28.166Z,13.35
2023-01-21T16:22:01.667Z,13.43
2023-01-21T16:24:37.470Z,13.26
2023-01-21T16:27:22.964Z,12.87
2023-01-21T16:30:01.191Z,12.54
2023-01-21T16:32:32.743Z,13.76
2023-01-21T16:35:03.373Z,13.72
2023-01-21T16:37:34.664Z,12.63
2023-01-21T16:40:15.303Z,13.03
2023-01-21T16:42:45.906Z,12.45
2023-01-21T16:45:23.194Z,12.79
2023-01-21T16:47:58.962Z,12.74
2023-01-21T16:50:33.413Z,12.38
2023-01-21T16:53:07.840Z,13.23
2023-01-21T16:55:41.187Z,13.38
2023-01-21T16:58:17.161Z,13.49
2023-01-21T17:01:05.962Z,13.96
2023-01-21T17:03:35.305Z,13.42
2023-01-21T17:06:23.931Z,13.93
2023-01-21T17:09:05.230Z,13.76
2023-01-21T17:11:39.677Z,13.10
2023-01-21T17:14:11.529Z,13.00
2023-01-21T17:16:43.704Z,13.15
2023-01-21T17:19:26.247Z,12.65
2023-01-21T17:22:00.177Z,16.97
2023-01-21T17:24:41.018Z,15.60
2023-01-21T17:27:14.452Z,15.37
2023-01-21T17:29:45.551Z,14.88
2023-01-21T17:32:34.666Z,15.48
2023-01-21T17:35:17.593Z,15.69
2023-01-21T17:37:57.895Z,15.20
2023-01-21T17:40:49.203Z,15.32
2023-01-21T17:43:26.623Z,15.42
2023-01-21T17:45:59.067Z,14.96
2023-01-21T17:48:36.205Z,15.24
2023-01-21T17:51:09.681Z,14.32
2023-01-21T17:53:46.401Z,14.80
2023-01-21T17:56:21.648Z,14.64
2023-01-21T17:58:53.234Z,14.87
2023-01-21T18:01:25.093Z,14.72
2023-01-21T18:03:55.611Z,14.37
2023-01-21T18:06:30.189Z,14.02
2023-01-21T18:09:01.208Z,14.78
2023-01-21T18:11:31.763Z,14.59
2023-01-21T18:14:02.235Z,13.46
2023-01-21T18:16:32.888Z,14.40
2023-01-21T18:19:03.407Z,13.83
2023-01-21T18:21:34.003Z,14.30
2023-01-21T18:24:04.635Z,13.94
2023-01-21T18:26:38.446Z,14.72
2023-01-21T18:29:12.023Z,13.94
2023-01-21T18:31:42.600Z,13.73
2023-01-21T18:34:13.572Z,14.08
2023-01-21T18:36:44.223Z,13.98
2023-01-21T18:39:21.633Z,13.68
2023-01-21T18:41:52.115Z,14.27
2023-01-21T18:44:22.729Z,14.14
2023-01-21T18:46:53.608Z,14.21
2023-01-21T18:49:25.181Z,14.90
2023-01-21T18:51:55.799Z,14.21
2023-01-21T18:54:27.317Z,13.85
2023-01-21T18:56:57.847Z,14.35
2023-01-21T18:59:28.943Z,13.77
2023-01-21T19:01:59.428Z,13.30
2023-01-21T19:04:29.958Z,13.37
2023-01-21T19:07:00.455Z,13.97
2023-01-21T19:09:32.517Z,13.46
2023-01-21T19:12:02.979Z,13.58
2023-01-21T19:14:33.597Z,13.71
2023-01-21T19:17:06.876Z,13.45
2023-01-21T19:19:40.398Z,13.35
2023-01-21T19:22:15.956Z,13.49
2023-01-21T19:24:47.218Z,13.54
2023-01-21T19:27:29.562Z,13.76
2023-01-21T19:30:00.043Z,13.82
2023-01-21T19:32:31.520Z,13.27
2023-01-21T19:35:02.025Z,13.46
2023-01-21T19:37:32.511Z,13.39
2023-01-21T19:40:04.937Z,13.20
2023-01-21T19:42:35.441Z,13.16
2023-01-21T19:45:06.293Z,13.64
2023-01-21T19:47:38.433Z,13.18
2023-01-21T19:50:14.753Z,12.92
2023-01-21T19:52:48.661Z,13.77
2023-01-21T19:55:23.587Z,13.79
2023-01-21T19:58:02.916Z,13.68
2023-01-21T20:00:36.607Z,13.56
2023-01-21T20:03:31.957Z,13.75
2023-01-21T20:06:05.744Z,13.86
2023-01-21T20:08:36.667Z,14.09
2023-01-21T20:11:07.258Z,13.10
2023-01-21T20:13:40.476Z,13.36
2023-01-21T20:16:21.254Z,12.91
2023-01-21T20:18:52.422Z,13.35
2023-01-21T20:21:23.514Z,13.85
2023-01-21T20:23:54.037Z,13.43
2023-01-21T20:26:27.550Z,13.72
2023-01-21T20:29:00.799Z,13.48
2023-01-21T20:31:32.733Z,12.84
2023-01-21T20:34:03.411Z,13.45
2023-01-21T20:36:34.089Z,13.64
2023-01-21T20:39:04.896Z,13.36
2023-01-21T20:41:37.104Z,13.69
2023-01-21T20:44:11.714Z,13.18
2023-01-21T20:46:43.624Z,13.44
2023-01-21T20:49:14.087Z,13.64
2023-01-21T20:51:44.595Z,13.17
2023-01-21T20:54:15.092Z,13.46
2023-01-21T20:56:46.030Z,12.99
2023-01-21T20:59:17.129Z,13.59
2023-01-21T21:01:50.908Z,13.49
2023-01-21T21:04:21.548Z,13.74
2023-01-21T21:06:52.265Z,13.84
2023-01-21T21:09:24.170Z,13.83
2023-01-21T21:11:54.816Z,14.16
2023-01-21T21:14:25.380Z,14.16
2023-01-21T21:16:57.419Z,14.25
2023-01-21T21:19:27.909Z,14.12
2023-01-21T21:21:59.567Z,13.91
2023-01-21T21:24:30.108Z,13.89
2023-01-21T21:27:01.377Z,13.41
2023-01-21T21:29:32.038Z,13.76
2023-01-21T21:32:03.221Z,13.47
2023-01-21T21:34:34.560Z,13.39
2023-01-21T21:37:05.943Z,12.70
2023-01-21T21:39:36.527Z,13.32
2023-01-21T21:42:25.016Z,13.31
2023-01-21T21:44:55.689Z,13.21
2023-01-21T21:47:44.025Z,13.81
2023-01-21T21:50:14.800Z,13.81
2023-01-21T21:52:46.363Z,13.74
2023-01-21T21:55:18.858Z,13.34
2023-01-21T21:57:49.776Z,13.08
2023-01-21T22:00:23.143Z,13.76
2023-01-21T22:02:54.257Z,13.91
2023-01-21T22:05:24.949Z,13.34
2023-01-21T22:07:57.541Z,13.67
2023-01-21T22:10:28.260Z,13.19
2023-01-21T22:13:00.135Z,13.77
2023-01-21T22:15:32.415Z,13.15
2023-01-21T22:18:03.478Z,12.69
2023-01-21T22:20:36.611Z,13.04
2023-01-21T22:23:10.623Z,13.23
2023-01-21T22:25:42.377Z,14.10
2023-01-21T22:28:14.923Z,14.15
2023-01-21T22:30:47.351Z,13.47
2023-01-21T22:33:21.907Z,13.35
2023-01-21T22:35:53.632Z,14.10
2023-01-21T22:38:25.734Z,13.13
2023-01-21T22:40:56.977Z,13.47
2023-01-21T22:43:27.878Z,13.70
2023-01-21T22:46:00.196Z,13.62
2023-01-21T22:48:32.911Z,12.78
2023-01-21T22:51:03.594Z,13.82
2023-01-21T22:53:35.523Z,13.62
2023-01-21T22:56:07.332Z,12.98
2023-01-21T22:58:38.146Z,13.45
2023-01-21T23:01:09.524Z,13.64
2023-01-21T23:03:40.050Z,14.07
2023-01-21T23:06:11.105Z,13.11
2023-01-21T23:08:41.643Z,13.58
2023-01-21T23:11:13.828Z,13.39
2023-01-21T23:13:46.106Z,13.08
2023-01-21T23:16:19.668Z,13.15
2023-01-21T23:18:51.085Z,13.06
2023-01-21T23:21:25.646Z,12.21
2023-01-21T23:24:04.123Z,13.17
2023-01-21T23:26:35.912Z,12.70
2023-01-21T23:29:13.398Z,12.65
2023-01-21T23:31:48.875Z,12.88
2023-01-21T23:34:23.647Z,12.55
2023-01-21T23:36:59.460Z,13.24
2023-01-21T23:39:31.603Z,12.83
2023-01-21T23:42:02.159Z,13.33
2023-01-21T23:44:33.399Z,12.89
2023-01-21T23:47:03.900Z,13.37
2023-01-21T23:49:34.699Z,12.93
2023-01-21T23:52:06.885Z,13.87
2023-01-21T23:54:37.526Z,13.22
2023-01-21T23:57:08.269Z,13.58
2023-01-21T23:59:39.370Z,13.08
